Time;durP1;ratioP1;P1;durP2;ratioP2;P2;SDS_P1;SDS_P2;PMS_P1;PMS_P2;Temp;Humidity;BMP_temperature;BMP_pressure;BME280_temperature;BME280_humidity;BME280_pressure;Samples;Min_cycle;Max_cycle;Signal;HPM_P1;HPM_P2
2022/10/25 00:00:12;;;;;;;40.33;12.68;;;;;;;-142.57;100.00;61215.63;4918264;29;20438;-86
2022/10/25 00:02:37;;;;;;;37.30;11.90;;;;;;;-142.57;100.00;61215.63;4917556;29;20083;-88
2022/10/25 00:05:04;;;;;;;27.20;12.23;;;;;;;-142.57;100.00;61215.63;4917589;29;20134;-86
2022/10/25 00:07:32;;;;;;;34.95;13.57;;;;;;;-142.57;100.00;61215.63;4918632;29;20379;-88
2022/10/25 00:09:58;;;;;;;30.50;11.18;;;;;;;-142.57;100.00;61215.63;4919063;29;20036;-89
2022/10/25 00:12:23;;;;;;;37.40;11.70;;;;;;;-142.57;100.00;61215.63;4918313;29;20046;-87
2022/10/25 00:14:49;;;;;;;29.90;13.88;;;;;;;-142.57;100.00;61215.63;4918715;29;20029;-87
2022/10/25 00:17:14;;;;;;;44.42;15.15;;;;;;;-142.57;100.00;61215.63;4921258;29;20040;-87
2022/10/25 00:19:40;;;;;;;47.85;16.60;;;;;;;-142.57;100.00;61215.63;4918113;29;20044;-88
2022/10/25 00:22:05;;;;;;;39.67;17.13;;;;;;;-142.57;100.00;61215.63;4916748;29;20040;-87
2022/10/25 00:24:31;;;;;;;52.85;19.08;;;;;;;-142.57;100.00;61215.63;4918049;29;20059;-89
2022/10/25 00:26:56;;;;;;;46.90;19.45;;;;;;;-142.57;100.00;61215.63;4917992;29;20048;-88
2022/10/25 00:29:22;;;;;;;42.75;19.25;;;;;;;-142.57;100.00;61215.63;4916784;29;20488;-87
2022/10/25 00:31:47;;;;;;;52.25;21.08;;;;;;;-142.57;100.00;61215.63;4917835;29;20397;-88
2022/10/25 00:34:13;;;;;;;49.53;21.05;;;;;;;-142.57;100.00;61215.63;4916901;29;20048;-87
2022/10/25 00:36:39;;;;;;;44.53;21.73;;;;;;;-142.57;100.00;61215.63;4922827;29;20473;-86
2022/10/25 00:39:23;;;;;;;54.03;21.08;;;;;;;-142.57;100.00;61215.63;4929937;29;20104;-86
2022/10/25 00:41:48;;;;;;;52.85;21.15;;;;;;;-142.57;100.00;61215.63;4930531;29;20071;-87
2022/10/25 00:44:57;;;;;;;60.33;21.58;;;;;;;-142.57;100.00;61215.63;4937323;29;20036;-86
2022/10/25 00:47:52;;;;;;;39.95;19.00;;;;;;;-142.57;100.00;61215.63;4891974;29;20045;-87
2022/10/25 00:50:27;;;;;;;47.97;21.02;;;;;;;-142.57;100.00;61215.63;4882226;29;20518;-86
2022/10/25 00:52:57;;;;;;;54.40;21.27;;;;;;;-142.57;100.00;61215.63;4908819;29;20379;-87
2022/10/25 00:55:26;;;;;;;42.53;20.80;;;;;;;-142.57;100.00;61215.63;4918191;29;20042;-87
2022/10/25 00:58:18;;;;;;;56.28;22.45;;;;;;;-142.57;100.00;61215.63;4918382;29;20039;-88
2022/10/25 01:00:46;;;;;;;52.70;22.05;;;;;;;-142.57;100.00;61215.63;4915334;29;20036;-85
2022/10/25 01:03:15;;;;;;;46.28;20.90;;;;;;;-142.57;100.00;61215.63;4917564;29;20032;-86
2022/10/25 01:05:42;;;;;;;52.70;22.83;;;;;;;-142.57;100.00;61215.63;4917752;29;20457;-88
2022/10/25 01:08:09;;;;;;;58.15;23.25;;;;;;;-142.57;100.00;61215.63;4917390;29;20032;-87
2022/10/25 01:10:35;;;;;;;53.65;23.02;;;;;;;-142.57;100.00;61215.63;4915972;29;20036;-86
2022/10/25 01:13:01;;;;;;;46.13;23.00;;;;;;;-142.57;100.00;61215.63;4918990;29;20152;-86
2022/10/25 01:15:35;;;;;;;54.83;23.40;;;;;;;-142.57;100.00;61215.63;4916548;29;20146;-87
2022/10/25 01:18:05;;;;;;;54.42;24.08;;;;;;;-142.57;100.00;61215.63;4917161;29;20442;-87
2022/10/25 01:21:07;;;;;;;50.78;24.17;;;;;;;-142.57;100.00;61215.63;4915928;29;20040;-88
2022/10/25 01:24:00;;;;;;;49.80;24.40;;;;;;;-142.57;100.00;61215.63;4916070;29;20132;-88
2022/10/25 01:26:38;;;;;;;53.38;23.90;;;;;;;-142.57;100.00;61215.63;4917420;29;20043;-90
2022/10/25 01:29:25;;;;;;;56.50;22.92;;;;;;;-142.57;100.00;61215.63;4918233;29;20036;-86
2022/10/25 01:32:21;;;;;;;45.45;22.38;;;;;;;-142.57;100.00;61215.63;4921039;29;20135;-87
2022/10/25 01:35:06;;;;;;;46.47;23.13;;;;;;;-142.57;100.00;61215.63;4885768;29;20110;-88
2022/10/25 01:37:58;;;;;;;47.05;22.00;;;;;;;-142.57;100.00;61215.63;4921096;29;20117;-87
2022/10/25 01:40:59;;;;;;;46.80;22.40;;;;;;;-142.57;100.00;61215.63;4920802;29;20108;-88
2022/10/25 01:43:33;;;;;;;52.67;22.75;;;;;;;-142.57;100.00;61215.63;4920499;29;20393;-88
2022/10/25 01:46:19;;;;;;;53.72;24.48;;;;;;;-142.57;100.00;61215.63;4920490;29;20051;-88
2022/10/25 01:48:49;;;;;;;51.50;22.83;;;;;;;-142.57;100.00;61215.63;4919198;29;20139;-89
2022/10/25 01:51:16;;;;;;;62.28;23.52;;;;;;;-142.57;100.00;61215.63;4900592;29;20100;-88
2022/10/25 01:53:49;;;;;;;50.75;23.25;;;;;;;-142.57;100.00;61215.63;4901474;29;20434;-88
2022/10/25 01:56:28;;;;;;;49.50;22.65;;;;;;;-142.57;100.00;61215.63;4900595;29;20044;-87
2022/10/25 01:59:03;;;;;;;48.65;22.70;;;;;;;-142.57;100.00;61215.63;4901287;29;20091;-88
2022/10/25 02:01:53;;;;;;;48.38;21.63;;;;;;;-142.57;100.00;61215.63;4901274;29;20040;-86
2022/10/25 02:04:24;;;;;;;52.92;21.15;;;;;;;-142.57;100.00;61215.63;4901366;29;20097;-87
2022/10/25 02:07:05;;;;;;;47.30;22.02;;;;;;;-142.57;100.00;61215.63;4900000;29;20052;-88
2022/10/25 02:09:58;;;;;;;55.83;21.75;;;;;;;-142.57;100.00;61215.63;4899694;29;20040;-88
2022/10/25 02:12:37;;;;;;;47.55;20.02;;;;;;;-142.57;100.00;61215.63;4900996;29;20108;-87
2022/10/25 02:15:15;;;;;;;52.35;20.52;;;;;;;-142.57;100.00;61215.63;4901536;29;20028;-87
2022/10/25 02:17:59;;;;;;;47.88;19.58;;;;;;;-142.57;100.00;61215.63;4899934;29;20044;-88
2022/10/25 02:20:28;;;;;;;56.22;20.73;;;;;;;-142.57;100.00;61215.63;4902304;29;20043;-84
2022/10/25 02:22:57;;;;;;;55.67;19.77;;;;;;;-142.57;100.00;61215.63;4901624;29;20037;-87
2022/10/25 02:25:23;;;;;;;55.03;19.88;;;;;;;-142.57;100.00;61215.63;4901295;29;20085;-87
2022/10/25 02:27:52;;;;;;;45.47;19.42;;;;;;;-142.57;100.00;61215.63;4900463;29;20391;-87
2022/10/25 02:30:18;;;;;;;50.58;20.33;;;;;;;-142.57;100.00;61215.63;4899616;29;20040;-89
2022/10/25 02:32:44;;;;;;;42.33;18.33;;;;;;;-142.57;100.00;61215.63;4900714;29;20055;-85
2022/10/25 02:35:14;;;;;;;51.13;21.13;;;;;;;-142.57;100.00;61215.63;4899707;29;20040;-88
2022/10/25 02:37:40;;;;;;;54.15;22.13;;;;;;;-142.57;100.00;61215.63;4901004;29;20047;-87
2022/10/25 02:40:07;;;;;;;57.63;23.55;;;;;;;-142.57;100.00;61215.63;4900530;29;20402;-87
2022/10/25 02:42:32;;;;;;;61.55;23.65;;;;;;;-142.57;100.00;61215.63;4900812;29;20100;-87
2022/10/25 02:44:58;;;;;;;47.35;22.50;;;;;;;-142.57;100.00;61215.63;4900596;29;20033;-88
2022/10/25 02:47:23;;;;;;;48.70;22.15;;;;;;;-142.57;100.00;61215.63;4900757;29;20044;-88
2022/10/25 02:49:49;;;;;;;58.40;25.63;;;;;;;-142.57;100.00;61215.63;4900682;29;20036;-88
2022/10/25 02:52:14;;;;;;;67.00;26.17;;;;;;;-142.57;100.00;61215.63;4900841;29;20044;-87
2022/10/25 02:54:40;;;;;;;65.13;28.17;;;;;;;-142.57;100.00;61215.63;4902077;29;20037;-88
2022/10/25 02:57:05;;;;;;;54.17;28.83;;;;;;;-142.57;100.00;61215.63;4899797;29;20037;-87
2022/10/25 02:59:31;;;;;;;68.63;30.38;;;;;;;-142.57;100.00;61215.63;4900561;29;20037;-87
2022/10/25 03:01:56;;;;;;;67.70;29.55;;;;;;;-142.57;100.00;61215.63;4900836;29;20040;-87
2022/10/25 03:04:22;;;;;;;61.08;30.30;;;;;;;-142.57;100.00;61215.63;4898650;29;20463;-86
2022/10/25 03:06:48;;;;;;;65.30;30.45;;;;;;;-142.57;100.00;61215.63;4902979;29;20489;-90
2022/10/25 03:09:13;;;;;;;60.38;30.00;;;;;;;-142.57;100.00;61215.63;4900593;29;20517;-88
2022/10/25 03:11:39;;;;;;;61.47;29.33;;;;;;;-142.57;100.00;61215.63;4899553;29;20410;-87
2022/10/25 03:14:05;;;;;;;60.65;29.73;;;;;;;-142.57;100.00;61215.63;4898871;29;20056;-88
2022/10/25 03:16:30;;;;;;;64.60;32.42;;;;;;;-142.57;100.00;61215.63;4899881;29;20490;-86
2022/10/25 03:18:57;;;;;;;66.18;30.50;;;;;;;-142.57;100.00;61215.63;4899907;29;20047;-87
2022/10/25 03:21:23;;;;;;;59.35;32.47;;;;;;;-142.57;100.00;61215.63;4899983;29;20398;-87
2022/10/25 03:23:49;;;;;;;65.57;31.58;;;;;;;-142.57;100.00;61215.63;4898409;29;20060;-87
2022/10/25 03:26:14;;;;;;;62.90;33.13;;;;;;;-142.57;100.00;61215.63;4899983;29;20075;-87
2022/10/25 03:28:40;;;;;;;60.70;33.92;;;;;;;-142.57;100.00;61215.63;4898575;29;20072;-87
2022/10/25 03:31:14;;;;;;;67.63;33.00;;;;;;;-142.57;100.00;61215.63;4899656;29;20048;-85
2022/10/25 03:33:40;;;;;;;62.60;33.17;;;;;;;-142.57;100.00;61215.63;4899717;29;20052;-87
2022/10/25 03:36:06;;;;;;;60.28;33.00;;;;;;;-142.57;100.00;61215.63;4900125;29;20104;-89
2022/10/25 03:38:32;;;;;;;76.85;34.90;;;;;;;-142.57;100.00;61215.63;4899942;29;20041;-88
2022/10/25 03:41:00;;;;;;;71.05;34.83;;;;;;;-142.57;100.00;61215.63;4898226;29;20424;-87
2022/10/25 03:43:26;;;;;;;66.70;34.75;;;;;;;-142.57;100.00;61215.63;4898204;29;20131;-88
2022/10/25 03:45:51;;;;;;;76.93;34.60;;;;;;;-142.57;100.00;61215.63;4899872;29;20139;-88
2022/10/25 03:48:17;;;;;;;71.20;34.78;;;;;;;-142.57;100.00;61215.63;4899474;29;20199;-89
2022/10/25 03:50:43;;;;;;;65.07;33.70;;;;;;;-142.57;100.00;61215.63;4897967;29;20048;-87
2022/10/25 03:53:09;;;;;;;65.47;34.15;;;;;;;-142.57;100.00;61215.63;4897512;29;20040;-91
2022/10/25 03:55:35;;;;;;;63.72;33.55;;;;;;;-142.57;100.00;61215.63;4899526;29;20220;-86
2022/10/25 03:58:00;;;;;;;73.97;35.25;;;;;;;-142.57;100.00;61215.63;4897600;29;20040;-86
2022/10/25 04:00:26;;;;;;;73.80;36.67;;;;;;;-142.57;100.00;61215.63;4899197;29;20064;-89
2022/10/25 04:02:58;;;;;;;78.72;34.83;;;;;;;-142.57;100.00;61215.63;4899255;29;20040;-87
2022/10/25 04:05:24;;;;;;;71.55;36.75;;;;;;;-142.57;100.00;61215.63;4906077;29;20055;-87
2022/10/25 04:07:50;;;;;;;79.95;35.97;;;;;;;-142.57;100.00;61215.63;4910381;29;20483;-86
2022/10/25 04:10:19;;;;;;;71.10;35.22;;;;;;;-142.57;100.00;61215.63;4908416;29;20087;-86
2022/10/25 04:12:45;;;;;;;78.18;35.90;;;;;;;-142.57;100.00;61215.63;4901262;29;20482;-87
2022/10/25 04:15:12;;;;;;;77.63;36.15;;;;;;;-142.57;100.00;61215.63;4899176;29;20092;-88
2022/10/25 04:17:37;;;;;;;70.57;34.78;;;;;;;-142.57;100.00;61215.63;4899545;29;20029;-86
2022/10/25 04:20:03;;;;;;;61.63;34.88;;;;;;;-142.57;100.00;61215.63;4897518;29;20128;-88
2022/10/25 04:22:29;;;;;;;71.60;32.65;;;;;;;-142.57;100.00;61215.63;4899137;29;20040;-88
2022/10/25 04:24:54;;;;;;;64.63;34.65;;;;;;;-142.57;100.00;61215.63;4902132;29;20045;-87
2022/10/25 04:27:20;;;;;;;69.28;34.80;;;;;;;-142.57;100.00;61215.63;4903710;29;20040;-88
2022/10/25 04:29:45;;;;;;;76.18;35.17;;;;;;;-142.57;100.00;61215.63;4902906;29;20036;-87
2022/10/25 04:32:11;;;;;;;75.63;36.13;;;;;;;-142.57;100.00;61215.63;4907036;29;20040;-86
2022/10/25 04:34:37;;;;;;;67.18;35.88;;;;;;;-142.57;100.00;61215.63;4907798;29;20039;-85
2022/10/25 04:37:03;;;;;;;66.32;32.08;;;;;;;-142.57;100.00;61215.63;4904438;29;20041;-91
2022/10/25 04:39:35;;;;;;;61.13;34.72;;;;;;;-142.57;100.00;61215.63;4908069;29;20043;-87
2022/10/25 04:42:03;;;;;;;73.22;36.33;;;;;;;-142.57;100.00;61215.63;4908179;29;20037;-91
2022/10/25 04:44:43;;;;;;;71.82;37.97;;;;;;;-142.57;100.00;61215.63;4926966;23;20125;-89
2022/10/25 04:47:12;;;;;;;79.82;40.00;;;;;;;-142.57;100.00;61215.63;4891219;29;20021;-91
2022/10/25 04:49:42;;;;;;;84.07;40.00;;;;;;;-142.57;100.00;61215.63;4890044;29;20074;-91
2022/10/25 04:52:14;;;;;;;82.00;38.92;;;;;;;-142.57;100.00;61215.63;4873195;29;20053;-93
2022/10/25 04:54:40;;;;;;;84.63;37.70;;;;;;;-142.57;100.00;61215.63;4885592;29;20490;-91
2022/10/25 04:57:06;;;;;;;69.80;38.13;;;;;;;-142.57;100.00;61215.63;4868889;29;20037;-93
2022/10/25 04:59:35;;;;;;;92.40;37.40;;;;;;;-142.57;100.00;61215.63;4913872;23;20128;-92
2022/10/25 05:02:07;;;;;;;76.88;36.53;;;;;;;-142.57;100.00;61215.63;4910323;29;20552;-94
2022/10/25 05:04:34;;;;;;;67.05;35.13;;;;;;;-142.57;100.00;61215.63;4894422;29;20041;-88
2022/10/25 05:07:02;;;;;;;75.63;34.95;;;;;;;-142.57;100.00;61215.63;4892355;29;20053;-92
2022/10/25 05:09:28;;;;;;;71.80;34.50;;;;;;;-142.57;100.00;61215.63;4908960;29;20041;-90
2022/10/25 05:12:02;;;;;;;72.45;33.88;;;;;;;-142.57;100.00;61215.63;4903870;29;20033;-90
2022/10/25 05:14:28;;;;;;;70.47;35.78;;;;;;;-142.57;100.00;61215.63;4908310;29;20033;-92
2022/10/25 05:16:53;;;;;;;61.63;33.97;;;;;;;-142.57;100.00;61215.63;4908853;29;20031;-87
2022/10/25 05:19:19;;;;;;;65.93;33.78;;;;;;;-142.57;100.00;61215.63;4906442;29;20129;-89
2022/10/25 05:21:46;;;;;;;71.40;33.42;;;;;;;-142.57;100.00;61215.63;4913590;29;20048;-90
2022/10/25 05:24:12;;;;;;;84.00;37.45;;;;;;;-142.57;100.00;61215.63;4917005;29;20040;-91
2022/10/25 05:26:37;;;;;;;71.97;35.15;;;;;;;-142.57;100.00;61215.63;4918815;29;20025;-88
2022/10/25 05:29:03;;;;;;;73.03;34.03;;;;;;;-142.57;100.00;61215.63;4891545;29;20041;-88
2022/10/25 05:31:29;;;;;;;74.97;35.70;;;;;;;-142.57;100.00;61215.63;4886984;29;20082;-87
2022/10/25 05:33:58;;;;;;;65.20;33.72;;;;;;;-142.57;100.00;61215.63;4888806;29;20044;-88
2022/10/25 05:36:24;;;;;;;64.25;32.75;;;;;;;-142.57;100.00;61215.63;4883442;29;20088;-88
2022/10/25 05:38:50;;;;;;;68.22;33.15;;;;;;;-142.57;100.00;61215.63;4890137;29;20093;-88
2022/10/25 05:41:17;;;;;;;68.50;34.25;;;;;;;-142.57;100.00;61215.63;4886782;29;20079;-88
2022/10/25 05:43:43;;;;;;;77.80;34.22;;;;;;;-142.57;100.00;61215.63;4888588;29;20037;-91
2022/10/25 05:46:16;;;;;;;67.75;33.10;;;;;;;-142.57;100.00;61215.63;4890612;29;20049;-88
2022/10/25 05:48:43;;;;;;;62.75;32.58;;;;;;;-142.57;100.00;61215.63;4897858;29;20479;-85
2022/10/25 05:51:14;;;;;;;67.43;32.65;;;;;;;-142.57;100.00;61215.63;4893934;29;20039;-88
2022/10/25 05:53:45;;;;;;;63.83;33.10;;;;;;;-142.57;100.00;61215.63;4896151;29;20037;-89
2022/10/25 05:56:11;;;;;;;64.70;33.92;;;;;;;-142.57;100.00;61215.63;4883607;29;20097;-89
2022/10/25 05:58:37;;;;;;;66.80;31.20;;;;;;;-142.57;100.00;61215.63;4895665;29;20096;-90
2022/10/25 06:01:03;;;;;;;66.20;33.08;;;;;;;-142.57;100.00;61215.63;4884961;29;20041;-87
2022/10/25 06:03:28;;;;;;;68.05;33.08;;;;;;;-142.57;100.00;61215.63;4888450;29;20378;-88
2022/10/25 06:05:59;;;;;;;71.85;33.65;;;;;;;-142.57;100.00;61215.63;4885185;29;20064;-86
2022/10/25 06:08:25;;;;;;;73.85;34.72;;;;;;;-142.57;100.00;61215.63;4892612;29;20512;-85
2022/10/25 06:10:50;;;;;;;75.82;34.03;;;;;;;-142.57;100.00;61215.63;4880909;29;20033;-85
2022/10/25 06:13:16;;;;;;;78.13;36.22;;;;;;;-142.57;100.00;61215.63;4882426;29;20495;-85
2022/10/25 06:15:41;;;;;;;82.85;37.90;;;;;;;-142.57;100.00;61215.63;4885034;29;20071;-84
2022/10/25 06:18:07;;;;;;;78.28;37.13;;;;;;;-142.57;100.00;61215.63;4890042;29;20025;-89
2022/10/25 06:20:35;;;;;;;71.30;34.85;;;;;;;-142.57;100.00;61215.63;4886671;29;20041;-86
2022/10/25 06:23:01;;;;;;;75.20;37.17;;;;;;;-142.57;100.00;61215.63;4886025;29;20036;-86
2022/10/25 06:25:26;;;;;;;73.32;36.47;;;;;;;-142.57;100.00;61215.63;4885706;29;20060;-89
2022/10/25 06:27:54;;;;;;;78.55;36.45;;;;;;;-142.57;100.00;61215.63;4886580;29;20124;-84
2022/10/25 06:30:20;;;;;;;79.97;36.60;;;;;;;-142.57;100.00;61215.63;4883344;29;20203;-86
2022/10/25 06:32:45;;;;;;;76.50;36.28;;;;;;;-142.57;100.00;61215.63;4884900;29;20041;-84
2022/10/25 06:35:11;;;;;;;76.00;34.65;;;;;;;-142.57;100.00;61215.63;4885785;29;20053;-86
2022/10/25 06:37:36;;;;;;;73.82;35.05;;;;;;;-142.57;100.00;61215.63;4887308;29;20122;-86
2022/10/25 06:40:02;;;;;;;75.45;34.95;;;;;;;-142.57;100.00;61215.63;4887272;29;20037;-91
2022/10/25 06:42:27;;;;;;;72.25;34.67;;;;;;;-142.57;100.00;61215.63;4887028;29;20116;-86
2022/10/25 06:44:53;;;;;;;71.10;34.05;;;;;;;-142.57;100.00;61215.63;4887769;29;20128;-85
2022/10/25 06:47:18;;;;;;;73.72;34.00;;;;;;;-142.57;100.00;61215.63;4888108;29;20475;-87
2022/10/25 06:49:45;;;;;;;75.53;33.30;;;;;;;-142.57;100.00;61215.63;4888873;29;20048;-87
2022/10/25 06:52:13;;;;;;;66.70;33.13;;;;;;;-142.57;100.00;61215.63;4886883;29;20163;-88
2022/10/25 06:54:38;;;;;;;60.90;30.63;;;;;;;-142.57;100.00;61215.63;4903436;29;20040;-85
2022/10/25 06:57:04;;;;;;;68.47;32.88;;;;;;;-142.57;100.00;61215.63;4901859;29;20137;-86
2022/10/25 06:59:29;;;;;;;67.93;31.92;;;;;;;-142.57;100.00;61215.63;4900574;29;20043;-86
2022/10/25 07:01:56;;;;;;;64.35;30.10;;;;;;;-142.57;100.00;61215.63;4901223;29;20028;-88
2022/10/25 07:04:21;;;;;;;65.43;29.95;;;;;;;-142.57;100.00;61215.63;4901706;29;20041;-86
2022/10/25 07:06:47;;;;;;;59.65;29.63;;;;;;;-142.57;100.00;61215.63;4901105;29;20069;-87
2022/10/25 07:09:14;;;;;;;67.60;30.83;;;;;;;-142.57;100.00;61215.63;4900408;29;20052;-88
2022/10/25 07:11:40;;;;;;;61.70;32.28;;;;;;;-142.57;100.00;61215.63;4901075;29;20053;-88
2022/10/25 07:14:08;;;;;;;70.80;32.63;;;;;;;-142.57;100.00;61215.63;4900733;29;20056;-89
2022/10/25 07:16:33;;;;;;;71.57;32.33;;;;;;;-142.57;100.00;61215.63;4899178;29;20028;-91
2022/10/25 07:19:02;;;;;;;79.32;36.20;;;;;;;-142.57;100.00;61215.63;4900902;29;20033;-85
2022/10/25 07:21:29;;;;;;;75.55;34.22;;;;;;;-142.57;100.00;61215.63;4904807;29;20052;-89
2022/10/25 07:23:55;;;;;;;64.03;33.63;;;;;;;-142.57;100.00;61215.63;4903005;29;20135;-86
2022/10/25 07:26:28;;;;;;;64.30;34.85;;;;;;;-142.57;100.00;61215.63;4901674;29;20034;-87
2022/10/25 07:28:56;;;;;;;68.72;33.75;;;;;;;-142.57;100.00;61215.63;4900722;29;20037;-89
2022/10/25 07:31:28;;;;;;;78.65;34.30;;;;;;;-142.57;100.00;61215.63;4901464;29;20036;-86
2022/10/25 07:33:56;;;;;;;80.30;32.67;;;;;;;-142.57;100.00;61215.63;4902892;29;20048;-87
2022/10/25 07:36:22;;;;;;;70.13;34.40;;;;;;;-142.57;100.00;61215.63;4903423;29;20068;-89
2022/10/25 07:38:47;;;;;;;76.32;33.72;;;;;;;-142.57;100.00;61215.63;4899252;29;20111;-87
2022/10/25 07:41:13;;;;;;;73.35;33.88;;;;;;;-142.57;100.00;61215.63;4899360;29;20490;-89
2022/10/25 07:43:39;;;;;;;76.57;34.33;;;;;;;-142.57;100.00;61215.63;4899882;29;20028;-86
2022/10/25 07:46:05;;;;;;;72.65;34.60;;;;;;;-142.57;100.00;61215.63;4899118;29;20039;-91
2022/10/25 07:48:32;;;;;;;70.28;35.47;;;;;;;-142.57;100.00;61215.63;4899333;29;20033;-88
2022/10/25 07:51:05;;;;;;;62.40;33.55;;;;;;;-142.57;100.00;61215.63;4899443;29;20417;-89
2022/10/25 07:53:31;;;;;;;78.57;34.58;;;;;;;-142.57;100.00;61215.63;4899394;29;20048;-86
2022/10/25 07:55:57;;;;;;;63.60;33.97;;;;;;;-142.57;100.00;61215.63;4899433;29;20037;-87
2022/10/25 07:58:22;;;;;;;68.15;32.15;;;;;;;-142.57;100.00;61215.63;4901562;29;20060;-86
2022/10/25 08:00:48;;;;;;;69.15;33.92;;;;;;;-142.57;100.00;61215.63;4901587;29;20036;-91
2022/10/25 08:03:15;;;;;;;88.60;34.50;;;;;;;-142.57;100.00;61215.63;4900458;29;20040;-87
2022/10/25 08:05:45;;;;;;;73.20;36.72;;;;;;;-142.57;100.00;61215.63;4899517;29;20087;-86
2022/10/25 08:08:12;;;;;;;72.70;35.75;;;;;;;-142.57;100.00;61215.63;4899617;29;20028;-89
2022/10/25 08:10:38;;;;;;;78.05;38.97;;;;;;;-142.57;100.00;61215.63;4899683;29;20037;-88
2022/10/25 08:13:03;;;;;;;80.55;39.72;;;;;;;-142.57;100.00;61215.63;4898980;29;20055;-85
2022/10/25 08:15:29;;;;;;;82.90;39.25;;;;;;;-142.57;100.00;61215.63;4898977;29;20036;-89
2022/10/25 08:18:02;;;;;;;79.97;37.45;;;;;;;-142.57;100.00;61215.63;4899202;29;20120;-88
2022/10/25 08:20:28;;;;;;;79.82;38.88;;;;;;;-142.57;100.00;61215.63;4897638;29;20047;-89
2022/10/25 08:22:58;;;;;;;74.10;40.15;;;;;;;-142.57;100.00;61215.63;4897599;29;20138;-88
2022/10/25 08:25:25;;;;;;;78.53;40.47;;;;;;;-142.57;100.00;61215.63;4898675;29;20093;-89
2022/10/25 08:27:50;;;;;;;77.78;42.75;;;;;;;-142.57;100.00;61215.63;4898467;29;20383;-87
2022/10/25 08:30:16;;;;;;;80.45;41.85;;;;;;;-142.57;100.00;61215.63;4898630;29;20052;-86
2022/10/25 08:32:42;;;;;;;83.10;41.22;;;;;;;-142.57;100.00;61215.63;4899014;29;20470;-87
2022/10/25 08:35:07;;;;;;;91.00;42.90;;;;;;;-142.57;100.00;61215.63;4899020;29;20032;-85
2022/10/25 08:37:33;;;;;;;76.93;40.95;;;;;;;-142.57;100.00;61215.63;4897097;29;20056;-88
2022/10/25 08:39:58;;;;;;;88.63;41.83;;;;;;;-142.57;100.00;61215.63;4898490;29;20113;-86
2022/10/25 08:42:50;;;;;;;79.10;42.20;;;;;;;-142.57;100.00;61215.63;4898342;29;20096;-88
2022/10/25 08:45:22;;;;;;;80.25;39.92;;;;;;;-142.57;100.00;61215.63;4898601;29;20395;-85
2022/10/25 08:47:51;;;;;;;71.55;37.92;;;;;;;-142.57;100.00;61215.63;4898763;29;20387;-89
2022/10/25 08:50:36;;;;;;;63.65;36.28;;;;;;;-142.57;100.00;61215.63;4897045;29;20041;-86
2022/10/25 08:53:07;;;;;;;76.20;36.70;;;;;;;-142.57;100.00;61215.63;4898751;29;20035;-90
2022/10/25 08:55:41;;;;;;;55.03;30.60;;;;;;;-142.57;100.00;61215.63;4898621;29;20044;-89
2022/10/25 08:58:15;;;;;;;70.68;29.88;;;;;;;-142.57;100.00;61215.63;4898385;29;20387;-90
2022/10/25 09:00:44;;;;;;;54.95;27.65;;;;;;;-142.57;100.00;61215.63;4897044;29;20487;-86
2022/10/25 09:03:24;;;;;;;65.85;30.50;;;;;;;-142.57;100.00;61215.63;4898665;29;20467;-89
2022/10/25 09:05:56;;;;;;;63.67;28.15;;;;;;;-142.57;100.00;61215.63;4898798;29;20032;-91
2022/10/25 09:08:56;;;;;;;53.80;28.35;;;;;;;-142.57;100.00;61215.63;4898678;29;20386;-90
2022/10/25 09:11:28;;;;;;;56.60;28.48;;;;;;;-142.57;100.00;61215.63;4898624;29;20048;-88
2022/10/25 09:13:57;;;;;;;62.07;29.73;;;;;;;-142.57;100.00;61215.63;4898477;29;20045;-88
2022/10/25 09:16:41;;;;;;;57.10;30.02;;;;;;;-142.57;100.00;61215.63;4899287;29;20047;-87
2022/10/25 09:19:19;;;;;;;57.80;30.30;;;;;;;-142.57;100.00;61215.63;4899226;29;20170;-89
2022/10/25 09:22:13;;;;;;;58.53;31.17;;;;;;;-142.57;100.00;61215.63;4900046;29;20036;-84
2022/10/25 09:24:53;;;;;;;59.53;31.08;;;;;;;-142.57;100.00;61215.63;4885957;29;20064;-88
2022/10/25 09:27:38;;;;;;;60.13;32.13;;;;;;;-142.57;100.00;61215.63;4903595;29;20096;-88
2022/10/25 09:30:10;;;;;;;61.75;31.52;;;;;;;-142.57;100.00;61215.63;4899895;29;20052;-87
2022/10/25 09:33:00;;;;;;;64.95;32.95;;;;;;;-142.57;100.00;61215.63;4900523;29;20044;-84
2022/10/25 09:35:40;;;;;;;56.97;30.73;;;;;;;-142.57;100.00;61215.63;4900234;29;20462;-88
2022/10/25 09:38:09;;;;;;;55.92;29.35;;;;;;;-142.57;100.00;61215.63;4898363;29;20123;-86
2022/10/25 09:40:44;;;;;;;51.05;28.90;;;;;;;-142.57;100.00;61215.63;4899687;29;20085;-83
2022/10/25 09:43:17;;;;;;;57.10;27.77;;;;;;;-142.57;100.00;61215.63;4901387;29;20387;-85
2022/10/25 09:45:48;;;;;;;52.10;28.40;;;;;;;-142.57;100.00;61215.63;4899405;29;20045;-90
2022/10/25 09:48:41;;;;;;;49.47;27.73;;;;;;;-142.57;100.00;61215.63;4899727;29;20055;-92
2022/10/25 09:51:08;;;;;;;;;;;;;;;-142.57;100.00;61215.63;4903666;29;20101;-86
2022/10/25 09:53:39;;;;;;;49.63;25.75;;;;;;;-142.57;100.00;61215.63;4907190;29;19967;-85
2022/10/25 09:56:04;;;;;;;44.22;24.08;;;;;;;-142.57;100.00;61215.63;4917051;29;20048;-88
2022/10/25 09:58:36;;;;;;;40.05;21.67;;;;;;;-142.57;100.00;61215.63;4919355;29;20068;-85
2022/10/25 10:01:15;;;;;;;36.97;20.83;;;;;;;-142.57;100.00;61215.63;4920338;29;20063;-89
2022/10/25 10:03:41;;;;;;;37.60;19.10;;;;;;;-142.57;100.00;61215.63;4921487;29;20028;-92
2022/10/25 10:06:28;;;;;;;45.85;19.65;;;;;;;-142.57;100.00;61215.63;4920194;29;20061;-84
2022/10/25 10:09:02;;;;;;;36.95;18.50;;;;;;;-142.57;100.00;61215.63;4914600;29;20115;-86
2022/10/25 10:11:30;;;;;;;34.28;18.88;;;;;;;-142.57;100.00;61215.63;4914356;29;20032;-82
2022/10/25 10:14:05;;;;;;;38.92;19.75;;;;;;;-142.57;100.00;61215.63;4920379;29;20052;-92
2022/10/25 10:16:35;;;;;;;38.78;18.38;;;;;;;-142.57;100.00;61215.63;4908256;29;20172;-84
2022/10/25 10:19:21;;;;;;;36.58;18.50;;;;;;;-142.57;100.00;61215.63;4904881;29;20060;-86
2022/10/25 10:21:53;;;;;;;41.95;18.45;;;;;;;-142.57;100.00;61215.63;4901747;29;20509;-86
2022/10/25 10:24:29;;;;;;;37.10;18.58;;;;;;;-142.57;100.00;61215.63;4903643;29;20076;-85
2022/10/25 10:26:58;;;;;;;36.78;18.42;;;;;;;-142.57;100.00;61215.63;4905742;29;20047;-86
2022/10/25 10:29:27;;;;;;;35.22;19.17;;;;;;;-142.57;100.00;61215.63;4906201;29;20092;-86
2022/10/25 10:31:59;;;;;;;32.30;17.25;;;;;;;-142.57;100.00;61215.63;4905191;29;20398;-84
2022/10/25 10:34:47;;;;;;;35.08;18.27;;;;;;;-142.57;100.00;61215.63;4903894;29;20048;-84
2022/10/25 10:37:20;;;;;;;47.20;20.27;;;;;;;-142.57;100.00;61215.63;4903541;29;20127;-87
2022/10/25 10:39:57;;;;;;;43.97;19.92;;;;;;;-142.57;100.00;61215.63;4903446;29;20096;-85
2022/10/25 10:42:36;;;;;;;39.50;20.13;;;;;;;-142.57;100.00;61215.63;4904377;29;20080;-83
2022/10/25 10:45:08;;;;;;;48.15;20.35;;;;;;;-142.57;100.00;61215.63;4905568;29;20096;-85
2022/10/25 10:47:49;;;;;;;43.97;21.70;;;;;;;-142.57;100.00;61215.63;4907808;29;20056;-84
2022/10/25 10:50:21;;;;;;;43.30;20.95;;;;;;;-142.57;100.00;61215.63;4911882;29;20065;-86
2022/10/25 10:52:52;;;;;;;40.05;21.00;;;;;;;-142.57;100.00;61215.63;4907567;29;20032;-87
2022/10/25 10:55:29;;;;;;;39.15;21.73;;;;;;;-142.57;100.00;61215.63;4907511;29;20037;-86
2022/10/25 10:57:59;;;;;;;44.35;21.23;;;;;;;-142.57;100.00;61215.63;4906277;29;20037;-92
2022/10/25 11:00:29;;;;;;;43.88;21.55;;;;;;;-142.57;100.00;61215.63;4910144;29;20127;-88
2022/10/25 11:02:55;;;;;;;51.67;22.75;;;;;;;-142.57;100.00;61215.63;4908695;29;20036;-88
2022/10/25 11:05:24;;;;;;;44.80;21.45;;;;;;;-142.57;100.00;61215.63;4907007;29;20047;-87
2022/10/25 11:08:15;;;;;;;46.80;22.73;;;;;;;-142.57;100.00;61215.63;4910570;29;20068;-88